Time;durP1;ratioP1;P1;durP2;ratioP2;P2;SDS_P1;SDS_P2;PMS_P1;PMS_P2;Temp;Humidity;BMP_temperature;BMP_pressure;BME280_temperature;BME280_humidity;BME280_pressure;Samples;Min_cycle;Max_cycle;Signal;HPM_P1;HPM_P2
2022/01/22 00:01:55;;;;;;;;;;;6.50;99.90;;;4.43;100.00;102127.28;4984974;28;19932;-83
2022/01/22 00:04:22;;;;;;;;;;;6.40;99.90;;;4.38;100.00;102132.09;4971090;28;19960;-83
2022/01/22 00:06:51;;;;;;;;;;;6.50;99.90;;;4.41;100.00;102135.47;4972076;28;20468;-84
2022/01/22 00:09:24;;;;;;;;;;;6.40;99.90;;;4.31;100.00;102121.75;4981386;28;19926;-83
2022/01/22 00:11:53;;;;;;;;;;;6.50;99.90;;;4.31;100.00;102132.53;4971017;28;19926;-83
2022/01/22 00:14:26;;;;;;;;;;;6.50;99.90;;;4.27;100.00;102128.31;4970982;28;20021;-83
2022/01/22 00:16:55;;;;;;;;;;;6.50;99.90;;;4.28;100.00;102129.16;4973259;28;19926;-83
2022/01/22 00:19:22;;;;;;;;;;;6.50;99.90;;;4.29;100.00;102131.78;4989985;28;20479;-83
2022/01/22 00:21:49;;;;;;;;;;;6.40;99.90;;;4.36;100.00;102137.63;4986915;28;19932;-83
2022/01/22 00:24:16;;;;;;;;;;;6.40;99.90;;;4.36;100.00;102125.97;4970919;28;20005;-83
2022/01/22 00:26:45;;;;;;;;;;;6.40;99.90;;;4.28;100.00;102132.75;4971352;28;19953;-83
2022/01/22 00:29:13;;;;;;;;;;;6.50;99.90;;;4.33;100.00;102132.44;4988560;28;20028;-83
2022/01/22 00:31:41;;;;;;;;;;;6.40;99.90;;;4.26;100.00;102126.56;4989743;28;19921;-83
2022/01/22 00:34:09;;;;;;;;;;;6.40;99.90;;;4.33;100.00;102139.66;4985593;28;19929;-83
2022/01/22 00:36:37;;;;;;;;;;;6.40;99.90;;;4.28;100.00;102124.66;4970639;28;20020;-83
2022/01/22 00:39:04;;;;;;;;;;;6.40;99.90;;;4.26;100.00;102137.34;4987724;28;19925;-83
2022/01/22 00:41:32;;;;;;;;;;;6.40;99.90;;;4.23;100.00;102128.66;4988638;28;20016;-83
2022/01/22 00:44:00;;;;;;;;;;;6.40;99.90;;;4.23;100.00;102126.81;4972039;28;19926;-83
2022/01/22 00:46:28;;;;;;;;;;;6.40;99.90;;;4.26;100.00;102121.19;4969001;28;19925;-83
2022/01/22 00:48:55;;;;;;;;;;;6.40;99.90;;;4.20;100.00;102118.06;4986040;28;19926;-83
2022/01/22 00:51:22;;;;;;;;;;;6.40;99.90;;;4.23;100.00;102118.72;4976050;28;19969;-83
2022/01/22 00:53:49;;;;;;;;;;;6.40;99.90;;;4.27;100.00;102132.84;4970588;28;19932;-83
2022/01/22 00:56:16;;;;;;;;;;;6.40;99.90;;;4.31;100.00;102123.59;4982456;28;20012;-83
2022/01/22 00:58:43;;;;;;;;;;;6.40;99.90;;;4.31;100.00;102113.66;4989460;28;19929;-83
2022/01/22 01:01:12;;;;;;;;;;;6.40;99.90;;;4.30;100.00;102119.16;4983279;28;19952;-83
2022/01/22 01:03:39;;;;;;;;;;;6.50;99.90;;;4.27;100.00;102109.47;5001611;28;20008;-83
2022/01/22 01:06:06;;;;;;;;;;;6.40;99.90;;;4.36;100.00;102115.19;4981828;28;19953;-83
2022/01/22 01:08:35;;;;;;;;;;;6.40;99.90;;;4.31;100.00;102113.66;4967218;28;19926;-83
2022/01/22 01:11:02;;;;;;;;;;;6.40;99.90;;;4.33;100.00;102120.78;4970622;28;19969;-83
2022/01/22 01:13:34;;;;;;;;;;;6.40;99.90;;;4.29;100.00;102120.13;4968943;28;19930;-83
2022/01/22 01:16:13;;;;;;;;;;;6.40;99.90;;;4.26;100.00;102125.72;4979892;28;20020;-83
2022/01/22 01:32:33;;;;;;;;;;;6.40;99.90;;;4.19;100.00;102132.47;4956400;28;19926;-84
2022/01/22 01:35:05;;;;;;;;;;;6.40;99.90;;;4.20;100.00;102127.00;4970462;28;19929;-83
2022/01/22 01:37:33;;;;;;;;;;;6.40;99.90;;;4.22;100.00;102135.00;4988402;28;19933;-83
2022/01/22 01:40:03;;;;;;;;;;;6.40;99.90;;;4.21;100.00;102123.34;4988388;28;19931;-83
2022/01/22 01:42:39;;;;;;;;;;;6.40;99.90;;;4.24;100.00;102123.13;4972541;28;19922;-83
2022/01/22 01:45:07;;;;;;;;;;;6.40;99.90;;;4.21;100.00;102123.34;4971919;28;19941;-83
2022/01/22 01:47:48;;;;;;;;;;;6.40;99.90;;;4.20;100.00;102118.91;4988391;28;19941;-83
2022/01/22 01:50:16;;;;;;;;;;;6.30;99.90;;;4.24;100.00;102128.50;4972148;28;20017;-83
2022/01/22 01:52:47;;;;;;;;;;;6.30;99.90;;;4.27;100.00;102120.22;5004620;28;19926;-81
2022/01/22 01:55:20;;;;;;;;;;;6.30;99.90;;;4.28;100.00;102127.38;4989208;28;20270;-81
2022/01/22 01:57:46;;;;;;;;;;;6.40;99.90;;;4.21;100.00;102123.34;4991363;28;20301;-81
2022/01/22 02:00:20;;;;;;;;;;;6.40;99.90;;;4.25;100.00;102122.16;4988888;28;19968;-81
2022/01/22 02:02:57;;;;;;;;;;;6.40;99.90;;;4.22;100.00;102116.97;4991266;28;20287;-81
2022/01/22 02:05:28;;;;;;;;;;;6.40;99.90;;;4.22;100.00;102121.50;4973908;28;20363;-81
2022/01/22 02:08:00;;;;;;;;;;;6.40;99.90;;;4.24;100.00;102116.88;4971679;28;19926;-81
2022/01/22 02:10:44;;;;;;;;;;;6.30;99.90;;;4.16;100.00;102119.25;4990934;28;20392;-81
2022/01/22 02:24:23;;;;;;;;;;;6.30;99.90;;;4.10;100.00;102115.97;4997423;28;20294;-84
2022/01/22 02:26:52;;;;;;;;;;;6.30;99.90;;;4.07;100.00;102120.72;4971786;28;20267;-83
2022/01/22 02:29:28;;;;;;;;;;;6.30;99.90;;;4.18;100.00;102118.16;4980517;28;19925;-83
2022/01/22 02:35:11;;;;;;;;;;;6.30;99.90;;;4.19;100.00;102117.19;4992214;28;19988;-84
2022/01/22 02:37:46;;;;;;;;;;;6.30;99.90;;;4.19;100.00;102113.63;4977772;28;20412;-83
2022/01/22 02:40:20;;;;;;;;;;;6.30;99.90;;;4.25;100.00;102114.09;4971056;28;20409;-83
2022/01/22 02:42:47;;;;;;;;;;;6.30;99.90;;;4.22;100.00;102121.50;4986951;28;19925;-83
2022/01/22 02:45:18;;;;;;;;;;;6.50;99.90;;;4.28;100.00;102108.50;4990414;28;19925;-83
2022/01/22 02:47:46;;;;;;;;;;;6.30;99.90;;;4.29;100.00;102110.22;4975743;28;19926;-83
2022/01/22 02:50:13;;;;;;;;;;;6.30;99.90;;;4.26;100.00;102113.09;4986881;28;19969;-83
2022/01/22 02:52:43;;;;;;;;;;;6.30;99.90;;;4.26;100.00;102112.25;4984585;28;19933;-83
2022/01/22 02:55:12;;;;;;;;;;;6.30;99.90;;;4.22;100.00;102108.03;4990382;28;19925;-83
2022/01/22 02:57:41;;;;;;;;;;;6.40;99.90;;;4.23;100.00;102104.38;4977538;28;19933;-83
2022/01/22 03:00:13;;;;;;;;;;;6.30;99.90;;;4.28;100.00;102108.50;4986672;28;19932;-83
2022/01/22 03:02:40;;;;;;;;;;;6.30;99.90;;;4.38;100.00;102113.25;4982627;28;19926;-83
2022/01/22 03:05:08;;;;;;;;;;;6.30;99.90;;;4.26;100.00;102115.78;4990249;28;19928;-83
2022/01/22 03:07:36;;;;;;;;;;;6.30;99.90;;;4.24;100.00;102122.28;4976257;28;19926;-83
2022/01/22 03:10:06;;;;;;;;;;;6.50;99.90;;;4.27;100.00;102125.63;5000683;28;19925;-83
2022/01/22 03:12:53;;;;;;;;;;;6.30;99.90;;;4.27;100.00;102122.94;4978570;28;19922;-83
2022/01/22 03:18:10;;;;;;;;;;;6.30;99.90;;;4.32;100.00;102114.53;4984833;28;20076;-83
2022/01/22 03:21:03;;;;;;;;;;;6.30;99.90;;;4.27;100.00;102111.28;4989778;28;20382;-83
2022/01/22 03:29:05;;;;;;;;;;;6.40;99.90;;;4.31;100.00;102108.28;4950954;28;19926;-83
2022/01/22 03:31:33;;;;;;;;;;;6.40;99.90;;;4.31;100.00;102119.06;4954146;28;19926;-83
2022/01/22 03:34:00;;;;;;;;;;;6.40;99.90;;;4.30;100.00;102122.72;5005911;28;20390;-83
2022/01/22 03:36:29;;;;;;;;;;;6.40;99.90;;;4.31;100.00;102118.19;4988801;28;19936;-83
2022/01/22 03:38:57;;;;;;;;;;;6.40;99.90;;;4.35;100.00;102116.16;4969997;28;19937;-83
2022/01/22 03:41:25;;;;;;;;;;;6.40;99.90;;;4.34;100.00;102122.50;4969498;28;19930;-83
2022/01/22 03:43:56;;;;;;;;;;;6.40;99.90;;;4.30;100.00;102127.22;4963044;28;20377;-83
2022/01/22 03:46:23;;;;;;;;;;;6.40;99.90;;;4.27;100.00;102132.84;4985992;28;20009;-83
2022/01/22 03:48:52;;;;;;;;;;;6.40;99.90;;;4.26;100.00;102137.34;5004688;28;19969;-84
2022/01/22 03:51:20;;;;;;;;;;;6.40;99.90;;;4.25;100.00;102132.94;4990629;28;20016;-83
2022/01/22 03:53:47;;;;;;;;;;;6.40;99.90;;;4.29;100.00;102126.38;4970710;28;19930;-83
2022/01/22 03:56:16;;;;;;;;;;;6.40;99.90;;;4.37;100.00;102128.56;4969861;28;19926;-83
2022/01/22 03:59:07;;;;;;;;;;;6.40;99.90;;;4.39;100.00;102128.47;4956441;28;19926;-83
2022/01/22 04:04:46;;;;;;;;;;;6.40;99.90;;;4.39;100.00;102126.63;4989429;28;19925;-83
2022/01/22 04:07:47;;;;;;;;;;;6.40;99.90;;;4.39;100.00;102128.47;4981660;28;19949;-83
2022/01/22 04:10:14;;;;;;;;;;;6.40;99.90;;;4.39;100.00;102129.31;4970871;28;19929;-83
2022/01/22 04:12:48;;;;;;;;;;;6.40;99.90;;;4.35;100.00;102133.19;4977312;28;19932;-83
2022/01/22 04:15:20;;;;;;;;;;;6.40;99.90;;;4.37;100.00;102125.84;4973479;28;19926;-83
2022/01/22 04:26:12;;;;;;;;;;;6.50;99.90;;;4.39;100.00;102131.16;4990049;28;19926;-84
2022/01/22 04:28:39;;;;;;;;;;;6.50;99.90;;;4.44;100.00;102134.41;4973762;28;19961;-83
2022/01/22 04:31:07;;;;;;;;;;;6.50;99.90;;;4.42;100.00;102130.97;4970855;28;20313;-83
2022/01/22 04:33:34;;;;;;;;;;;6.50;99.90;;;4.42;100.00;102131.81;4984490;28;19953;-83
2022/01/22 04:36:01;;;;;;;;;;;6.50;99.90;;;4.51;100.00;102135.69;4988755;28;19925;-83
2022/01/22 04:38:28;;;;;;;;;;;6.50;99.90;;;4.52;100.00;102131.19;4975605;28;19961;-84
2022/01/22 04:40:55;;;;;;;;;;;6.50;99.90;;;4.50;100.00;102128.59;4970691;28;20021;-84
2022/01/22 04:43:22;;;;;;;;;;;6.50;99.90;;;4.55;100.00;102131.84;4981699;28;20296;-83
2022/01/22 04:46:04;;;;;;;;;;;6.50;99.90;;;4.50;100.00;102132.13;4988642;28;20038;-84
2022/01/22 04:48:48;;;;;;;;;;;6.50;99.90;;;4.55;100.00;102136.34;4976609;28;19949;-83
2022/01/22 04:56:51;;;;;;;;;;;6.50;99.90;;;4.62;100.00;102135.81;4968930;28;19933;-83
2022/01/22 04:59:19;;;;;;;;;;;6.50;99.90;;;4.58;100.00;102137.00;4986778;28;19929;-83
2022/01/22 05:01:47;;;;;;;;;;;6.50;99.90;;;4.58;100.00;102134.31;5004494;28;20449;-84
2022/01/22 05:04:28;;;;;;;;;;;6.60;99.90;;;4.63;100.00;102137.56;4970643;28;19926;-83
2022/01/22 05:07:21;;;;;;;;;;;6.60;99.90;;;4.59;100.00;102138.75;4963690;28;20653;-83
2022/01/22 05:10:01;;;;;;;;;;;6.60;99.90;;;4.62;100.00;102135.81;4988186;28;19922;-83
2022/01/22 05:12:31;;;;;;;;;;;6.60;99.90;;;4.58;100.00;102130.75;5001685;28;19969;-83
2022/01/22 05:14:58;;;;;;;;;;;6.60;99.90;;;4.62;100.00;102133.13;4972295;28;20083;-83
2022/01/22 05:17:26;;;;;;;;;;;6.60;99.90;;;4.59;100.00;102133.34;5038380;23;19964;-88
2022/01/22 05:20:04;;;;;;;;;;;6.60;99.90;;;4.59;100.00;102136.06;4963554;28;19932;-88
2022/01/22 05:22:47;;;;;;;;;;;6.60;99.90;;;4.60;100.00;102131.50;4967845;28;19926;-90
2022/01/22 05:25:20;;;;;;;;;;;6.60;99.90;;;4.60;100.00;102140.44;4958759;28;19968;-88
2022/01/22 05:27:58;;;;;;;;;;;6.60;99.90;;;4.69;100.00;102131.72;4959434;28;19930;-90
2022/01/22 05:30:59;;;;;;;;;;;6.60;99.90;;;4.66;100.00;102134.66;4954006;29;19930;-88
2022/01/22 05:39:16;;;;;;;;;;;6.60;99.90;;;4.79;100.00;102128.41;4954683;28;20018;-88
2022/01/22 05:41:44;;;;;;;;;;;6.60;99.90;;;4.80;100.00;102138.25;4973571;28;19926;-90
2022/01/22 05:44:11;;;;;;;;;;;6.70;99.90;;;4.71;100.00;102142.41;4971451;28;20033;-90
2022/01/22 05:46:38;;;;;;;;;;;6.70;99.90;;;4.72;100.00;102138.75;4953043;29;19934;-90
2022/01/22 05:49:06;;;;;;;;;;;6.70;99.90;;;4.79;100.00;102134.66;4952898;28;19977;-90
2022/01/22 05:51:37;;;;;;;;;;;6.70;99.90;;;4.78;100.00;102142.84;4972120;28;19925;-89
2022/01/22 05:59:39;;;;;;;;;;;6.70;99.90;;;4.85;100.00;102141.44;4971478;28;20048;-91
2022/01/22 06:02:10;;;;;;;;;;;6.70;99.90;;;4.90;100.00;102142.84;4971780;28;19926;-90
2022/01/22 06:04:38;;;;;;;;;;;6.70;99.90;;;4.93;100.00;102149.91;4953690;28;19926;-88
2022/01/22 06:07:10;;;;;;;;;;;6.70;99.90;;;4.90;100.00;102152.78;4962804;28;19932;-89
2022/01/22 06:09:40;;;;;;;;;;;6.70;99.90;;;4.88;100.00;102155.59;4971508;28;19929;-90
2022/01/22 06:12:17;;;;;;;;;;;6.70;99.90;;;4.90;100.00;102160.88;4971110;28;20413;-90
2022/01/22 06:14:51;;;;;;;;;;;6.70;99.90;;;4.88;100.00;102161.00;4971905;28;19925;-90
2022/01/22 06:17:19;;;;;;;;;;;6.70;99.90;;;4.85;100.00;102154.94;4971416;28;19930;-90
2022/01/22 06:19:53;;;;;;;;;;;6.80;99.90;;;4.86;100.00;102160.22;4971534;28;19953;-90
2022/01/22 06:22:21;;;;;;;;;;;6.80;99.90;;;4.88;100.00;102166.38;4971491;28;20005;-88
2022/01/22 06:24:49;;;;;;;;;;;6.80;99.90;;;4.87;100.00;102166.47;4970967;28;19926;-88
2022/01/22 06:27:16;;;;;;;;;;;6.80;99.90;;;4.94;100.00;102169.63;4971415;28;20052;-88
2022/01/22 06:29:44;;;;;;;;;;;6.80;99.90;;;4.98;100.00;102173.84;4971261;28;19926;-87
2022/01/22 06:32:13;;;;;;;;;;;6.90;99.90;;;4.95;100.00;102166.84;4971243;28;20794;-90
2022/01/22 06:34:42;;;;;;;;;;;6.80;99.90;;;5.04;100.00;102171.56;4971277;28;19933;-91
2022/01/22 06:37:10;;;;;;;;;;;6.90;99.90;;;5.07;100.00;102171.34;4970977;28;20287;-89
2022/01/22 06:41:44;;;;;;;;;;;6.90;99.90;;;5.05;100.00;102173.31;4970969;28;19941;-91
2022/01/22 06:42:57;;;;;;;;;;;6.90;99.90;;;5.01;100.00;102184.44;4958053;28;19933;-88
2022/01/22 06:45:36;;;;;;;;;;;6.90;99.90;;;5.02;100.00;102194.22;4951926;28;20021;-87
2022/01/22 06:48:10;;;;;;;;;;;6.90;99.90;;;5.08;100.00;102186.59;4951905;28;19922;-88
2022/01/22 06:50:58;;;;;;;;;;;6.90;99.90;;;5.14;100.00;102189.81;4951867;29;19930;-88
2022/01/22 06:53:26;;;;;;;;;;;7.00;99.90;;;5.03;100.00;102187.88;4964165;28;19922;-90
2022/01/22 06:55:57;;;;;;;;;;;6.90;99.90;;;5.03;100.00;102187.88;4951682;29;19926;-86
2022/01/22 06:58:28;;;;;;;;;;;7.00;99.90;;;5.00;100.00;102194.34;4968811;28;19933;-85
2022/01/22 07:01:02;;;;;;;;;;;6.90;99.90;;;5.01;100.00;102198.78;4971022;28;19926;-83
2022/01/22 07:03:40;;;;;;;;;;;6.90;99.90;;;5.05;100.00;102196.72;4970693;28;19926;-83
2022/01/22 07:06:31;;;;;;;;;;;7.00;99.90;;;5.09;100.00;102199.09;4970524;28;19926;-84
2022/01/22 07:08:58;;;;;;;;;;;7.00;99.90;;;5.07;100.00;102192.94;4970435;28;19926;-82
2022/01/22 07:11:26;;;;;;;;;;;7.00;99.90;;;5.07;100.00;102198.34;4969867;28;19962;-82
2022/01/22 07:13:54;;;;;;;;;;;7.00;99.90;;;5.02;100.00;102202.31;4970552;28;19926;-81
2022/01/22 07:16:21;;;;;;;;;;;7.00;99.90;;;5.03;100.00;102202.22;4968809;28;19928;-82
2022/01/22 07:19:00;;;;;;;;;;;7.00;99.90;;;5.08;100.00;102208.19;4983334;28;20016;-82
2022/01/22 07:21:29;;;;;;;;;;;7.00;99.90;;;5.08;100.00;102218.97;4985962;28;19922;-81
2022/01/22 07:26:45;;;;;;;;;;;7.00;99.90;;;5.16;100.00;102218.44;4966329;28;20381;-84
2022/01/22 07:29:20;;;;;;;;;;;7.00;99.90;;;5.08;100.00;102227.06;4950911;29;19926;-83
2022/01/22 07:31:47;;;;;;;;;;;7.00;99.90;;;5.08;100.00;102227.06;4982742;28;20386;-85
2022/01/22 07:34:15;;;;;;;;;;;7.00;99.90;;;5.14;100.00;102225.78;4951387;29;19961;-82
2022/01/22 07:36:44;;;;;;;;;;;7.00;99.90;;;5.22;100.00;102227.94;4984994;28;20309;-83
2022/01/22 07:39:12;;;;;;;;;;;7.00;99.90;;;5.21;100.00;102231.59;4971647;28;20297;-83
2022/01/22 07:42:00;;;;;;;;;;;7.00;99.90;;;5.14;100.00;102235.69;4965296;28;20390;-83
2022/01/22 07:44:53;;;;;;;;;;;7.00;99.90;;;5.11;100.00;102236.78;4982879;28;19993;-84
2022/01/22 07:47:21;;;;;;;;;;;7.00;99.90;;;5.16;100.00;102236.44;4975120;28;20343;-84
2022/01/22 07:49:48;;;;;;;;;;;7.00;99.90;;;5.19;100.00;102236.25;4950493;29;19959;-85
2022/01/22 07:52:16;;;;;;;;;;;7.00;99.90;;;5.17;100.00;102243.59;4950952;28;20392;-85
2022/01/22 07:54:53;;;;;;;;;;;7.00;99.90;;;5.16;100.00;102239.13;4951251;28;19926;-85
2022/01/22 07:57:23;;;;;;;;;;;7.00;99.90;;;5.16;100.00;102241.84;4965638;28;19936;-86
2022/01/22 07:59:51;;;;;;;;;;;7.00;99.90;;;5.19;100.00;102242.50;4963549;28;19969;-84
2022/01/22 08:02:20;;;;;;;;;;;7.00;99.90;;;5.18;100.00;102242.59;4967245;28;20036;-85
2022/01/22 08:05:08;;;;;;;;;;;7.00;99.90;;;5.08;100.00;102245.97;4966620;28;19933;-85
2022/01/22 08:07:55;;;;;;;;;;;7.10;99.90;;;5.07;100.00;102251.47;4952187;29;19937;-84
2022/01/22 08:10:56;;;;;;;;;;;7.10;99.90;;;5.15;100.00;102253.63;4952369;28;19927;-84
2022/01/22 08:13:25;;;;;;;;;;;7.10;99.90;;;5.13;100.00;102239.38;4982782;28;20287;-85
2022/01/22 08:15:53;;;;;;;;;;;7.10;99.90;;;5.18;100.00;102242.59;4978469;28;20033;-84
2022/01/22 08:18:20;;;;;;;;;;;7.10;99.90;;;5.20;100.00;102246.06;4951358;28;19977;-84
2022/01/22 08:20:47;;;;;;;;;;;7.10;99.90;;;5.27;100.00;102247.34;4956042;28;19933;-84
2022/01/22 08:23:47;;;;;;;;;;;7.10;99.90;;;5.22;100.00;102249.53;4969350;28;19922;-84
2022/01/22 08:26:38;;;;;;;;;;;7.10;99.90;;;5.22;100.00;102249.53;4969386;28;19996;-84
2022/01/22 08:29:17;;;;;;;;;;;7.10;99.90;;;5.27;100.00;102247.34;4969208;28;19926;-83
2022/01/22 08:31:52;;;;;;;;;;;7.10;99.90;;;5.19;100.00;102238.94;4968875;28;19932;-92
2022/01/22 08:37:08;;;;;;;;;;;7.10;99.90;;;5.23;100.00;102243.16;4968361;28;20056;-87
2022/01/22 08:39:45;;;;;;;;;;;;;;;;;;;;;
2022/01/22 08:42:12;;;;;;;;;;;7.10;99.90;;;5.16;100.00;102233.75;4969118;28;20297;-88
2022/01/22 08:44:41;;;;;;;;;;;7.10;99.90;;;5.20;100.00;102236.13;4969460;28;19930;-88
2022/01/22 08:47:13;;;;;;;;;;;7.20;99.90;;;5.20;100.00;102235.28;4969539;28;20012;-88
2022/01/22 08:49:46;;;;;;;;;;;7.20;99.90;;;5.24;100.00;102236.78;4973098;28;20295;-87
2022/01/22 08:52:22;;;;;;;;;;;7.20;99.90;;;5.22;100.00;102238.75;4973975;28;19925;-88
2022/01/22 08:54:49;;;;;;;;;;;7.20;99.90;;;5.32;100.00;102239.81;4973273;28;19933;-90
2022/01/22 08:57:20;;;;;;;;;;;7.20;99.90;;;5.37;100.00;102247.56;4972616;28;20454;-89
2022/01/22 09:00:10;;;;;;;;;;;7.20;99.90;;;5.41;100.00;102247.25;4972284;28;19932;-89
2022/01/22 09:03:07;;;;;;;;;;;7.20;99.90;;;5.51;100.00;102250.19;4973304;28;20068;-87
2022/01/22 09:05:56;;;;;;;;;;;7.20;99.90;;;5.51;100.00;102249.31;4972736;28;19926;-86
2022/01/22 09:08:42;;;;;;;;;;;7.20;99.90;;;5.46;100.00;102247.81;4957749;28;19933;-87
2022/01/22 09:11:22;;;;;;;;;;;7.30;99.90;;;5.44;100.00;102254.28;4953931;28;19923;-86
2022/01/22 09:13:59;;;;;;;;;;;7.30;99.90;;;5.47;100.00;102254.06;4953675;29;19926;-87
2022/01/22 09:16:38;;;;;;;;;;;7.30;99.90;;;5.47;100.00;102252.22;4967815;28;19925;-87
2022/01/22 09:19:09;;;;;;;;;;;7.30;99.90;;;5.45;100.00;102264.13;4972702;28;19932;-87
2022/01/22 09:21:37;;;;;;;;;;;7.40;99.90;;;5.47;100.00;102271.13;4972715;28;19926;-84
2022/01/22 09:24:05;;;;;;;;;;;7.30;99.90;;;5.42;100.00;102262.47;4972736;28;20446;-86
2022/01/22 09:26:33;;;;;;;;;;;7.30;99.90;;;5.44;100.00;102270.47;4960156;28;20302;-87
2022/01/22 09:29:01;;;;;;;;;;;7.40;99.90;;;5.42;100.00;102267.88;4970000;28;19968;-87
2022/01/22 09:31:30;;;;;;;;;;;7.40;99.90;;;5.43;100.00;102266.91;4959899;28;19946;-87
2022/01/22 09:34:00;;;;;;;;;;;7.30;99.90;;;5.41;100.00;102268.88;4954162;28;20017;-87
2022/01/22 09:36:47;;;;;;;;;;;7.30;99.90;;;5.38;100.00;102269.06;4957123;28;19927;-88
2022/01/22 09:39:50;;;;;;;;;;;7.30;99.90;;;5.40;100.00;102275.22;4967040;28;19925;-90
2022/01/22 09:42:43;;;;;;;;;;;7.40;99.90;;;5.40;100.00;102264.41;4973690;28;20365;-88
2022/01/22 09:45:36;;;;;;;;;;;7.40;99.90;;;5.43;100.00;102274.16;4954146;28;19926;-90
2022/01/22 09:48:29;;;;;;;;;;;7.30;99.90;;;5.49;100.00;102277.28;4965330;28;19926;-90
2022/01/22 09:51:19;;;;;;;;;;;7.30;99.90;;;5.48;100.00;102277.38;4972633;28;20565;-91
2022/01/22 09:57:14;;;;;;;;;;;7.40;99.90;;;5.52;100.00;102283.44;4937726;28;19933;-92
2022/01/22 10:00:00;;;;;;;;;;;7.40;99.90;;;5.52;100.00;102291.53;4954791;28;20025;-87
2022/01/22 10:02:50;;;;;;;;;;;7.40;99.90;;;5.48;100.00;102294.47;4969098;28;20700;-90
2022/01/22 10:05:46;;;;;;;;;;;7.40;99.90;;;5.44;100.00;102287.53;4960830;28;19922;-89
2022/01/22 10:08:36;;;;;;;;;;;7.40;99.90;;;5.49;100.00;102285.38;4969510;28;19936;-90
2022/01/22 10:11:29;;;;;;;;;;;7.40;99.90;;;5.56;100.00;102282.25;4969433;28;19949;-91
2022/01/22 10:14:11;;;;;;;;;;;7.40;99.90;;;5.49;100.00;102282.69;4953668;29;19932;-90
2022/01/22 10:17:07;;;;;;;;;;;7.40;99.90;;;5.52;100.00;102286.13;4955064;28;19933;-90
2022/01/22 10:19:34;;;;;;;;;;;7.40;99.90;;;5.52;100.00;102291.53;4958945;28;19957;-89
2022/01/22 10:22:04;;;;;;;;;;;7.50;99.90;;;5.52;100.00;102295.13;4959200;28;19930;-90
2022/01/22 10:24:37;;;;;;;;;;;7.50;99.90;;;5.59;100.00;102300.94;4954725;28;20354;-90
2022/01/22 10:27:22;;;;;;;;;;;7.50;99.90;;;5.67;100.00;102294.03;4954255;28;19981;-89
2022/01/22 10:29:52;;;;;;;;;;;7.50;99.90;;;5.67;100.00;102298.56;4956568;28;19926;-90
2022/01/22 10:32:23;;;;;;;;;;;7.50;99.90;;;5.69;100.00;102293.91;4953717;28;19930;-90
2022/01/22 10:35:11;;;;;;;;;;;7.50;99.90;;;5.68;100.00;102297.59;4954175;29;19929;-90
2022/01/22 10:37:59;;;;;;;;;;;7.60;99.90;;;5.67;100.00;102290.44;4954618;28;19981;-90
2022/01/22 10:40:29;;;;;;;;;;;7.60;99.90;;;5.66;100.00;102296.84;4952821;28;19926;-90
2022/01/22 10:43:20;;;;;;;;;;;7.60;99.90;;;5.64;100.00;102294.25;4967826;28;19937;-90
2022/01/22 10:46:33;;;;;;;;;;;7.60;99.90;;;5.76;100.00;102297.91;4972418;28;19926;-90
2022/01/22 10:49:07;;;;;;;;;;;7.60;99.90;;;5.75;100.00;102300.72;4959541;28;19926;-90
2022/01/22 10:51:45;;;;;;;;;;;7.60;99.90;;;5.69;100.00;102291.19;4971720;28;19926;-90
2022/01/22 10:54:14;;;;;;;;;;;7.60;99.90;;;5.73;100.00;102298.16;4971346;28;19965;-90
2022/01/22 10:56:42;;;;;;;;;;;7.60;99.90;;;5.67;100.00;102293.16;4955293;28;19926;-89
2022/01/22 10:59:11;;;;;;;;;;;7.80;99.90;;;5.75;100.00;102285.38;4955170;28;19933;-90
2022/01/22 11:01:52;;;;;;;;;;;7.60;99.90;;;5.83;100.00;102293.81;4952982;28;19981;-90
2022/01/22 11:04:21;;;;;;;;;;;7.60;99.90;;;5.80;100.00;102287.75;4951778;28;19929;-90
2022/01/22 11:06:51;;;;;;;;;;;7.60;99.90;;;5.84;100.00;102290.09;4953234;28;19930;-89
2022/01/22 11:09:18;;;;;;;;;;;7.70;99.90;;;5.86;100.00;102290.88;4961542;28;20028;-90
2022/01/22 11:11:48;;;;;;;;;;;7.70;99.90;;;5.95;100.00;102285.78;4970381;28;20040;-90
2022/01/22 11:14:17;;;;;;;;;;;7.70;99.90;;;6.06;100.00;102291.31;4971956;28;20031;-90
2022/01/22 11:16:45;;;;;;;;;;;7.70;99.90;;;6.08;100.00;102286.66;4986806;23;19926;-84
2022/01/22 11:19:14;;;;;;;;;;;7.70;99.90;;;6.09;100.00;102282.97;4976699;28;20016;-86
2022/01/22 11:21:46;;;;;;;;;;;7.80;99.90;;;6.02;100.00;102281.72;4986024;28;20044;-86
2022/01/22 11:24:13;;;;;;;;;;;7.80;99.90;;;6.01;100.00;102271.84;4991167;28;19921;-86
2022/01/22 11:26:43;;;;;;;;;;;7.80;99.90;;;6.07;100.00;102284.91;4979913;28;19929;-86
2022/01/22 11:29:13;;;;;;;;;;;7.80;99.90;;;6.12;100.00;102281.91;4971395;28;20016;-87
2022/01/22 11:31:42;;;;;;;;;;;7.80;99.90;;;6.13;100.00;102278.19;4971438;28;20458;-87
2022/01/22 11:34:09;;;;;;;;;;;7.80;99.90;;;6.08;100.00;102275.84;4970368;28;19977;-86
2022/01/22 11:36:43;;;;;;;;;;;7.80;99.90;;;6.06;100.00;102283.22;4971429;28;19926;-87
2022/01/22 11:39:18;;;;;;;;;;;7.80;99.90;;;5.97;100.00;102278.47;4971403;28;19965;-87
2022/01/22 11:41:51;;;;;;;;;;;7.80;99.90;;;6.04;100.00;102295.97;4971612;28;20426;-86
2022/01/22 11:44:27;;;;;;;;;;;7.90;99.90;;;6.02;100.00;102277.16;4970392;28;19977;-88
2022/01/22 11:47:11;;;;;;;;;;;7.90;99.90;;;6.13;100.00;102289.00;4971329;28;19937;-86
2022/01/22 11:49:39;;;;;;;;;;;7.90;99.90;;;6.23;100.00;102290.09;4971180;28;19997;-86
2022/01/22 11:52:23;;;;;;;;;;;7.90;99.90;;;6.26;100.00;102290.72;4971188;28;20667;-86
2022/01/22 11:54:51;;;;;;;;;;;7.90;99.90;;;6.21;100.00;102287.50;4969877;28;19929;-87
2022/01/22 11:57:19;;;;;;;;;;;8.00;99.90;;;6.29;100.00;102283.38;4970797;28;19933;-86
2022/01/22 11:59:49;;;;;;;;;;;8.00;99.90;;;6.33;100.00;102284.88;4969152;28;19926;-87
2022/01/22 12:02:16;;;;;;;;;;;8.00;99.90;;;6.31;100.00;102276.84;4967954;28;19926;-87
2022/01/22 12:04:53;;;;;;;;;;;8.00;99.90;;;6.31;100.00;102287.69;4970859;28;19937;-86
2022/01/22 12:07:26;;;;;;;;;;;8.00;99.90;;;6.26;100.00;102284.44;4971196;28;19922;-86
2022/01/22 12:10:19;;;;;;;;;;;8.00;99.90;;;6.26;100.00;102279.03;4970831;28;19936;-86
2022/01/22 12:15:51;;;;;;;;;;;8.10;99.90;;;6.27;100.00;102291.59;4948604;28;19926;-86
2022/01/22 12:18:21;;;;;;;;;;;8.00;99.90;;;6.33;100.00;102291.13;4970460;28;20257;-87
2022/01/22 12:23:50;;;;;;;;;;;8.00;99.90;;;6.34;100.00;102279.34;4970205;28;20088;-87
2022/01/22 12:26:37;;;;;;;;;;;8.00;99.90;;;6.40;100.00;102272.63;4970598;28;19925;-86
2022/01/22 12:29:43;;;;;;;;;;;8.20;99.90;;;6.30;100.00;102269.72;4970167;28;20482;-88
2022/01/22 12:32:37;;;;;;;;;;;8.00;99.90;;;6.30;100.00;102260.75;4970630;28;20379;-86
2022/01/22 12:35:17;;;;;;;;;;;8.00;99.90;;;6.23;100.00;102269.31;4970662;28;19929;-88
2022/01/22 12:37:52;;;;;;;;;;;8.00;99.90;;;6.23;100.00;102279.28;4968519;28;19930;-87
2022/01/22 12:40:31;;;;;;;;;;;8.00;99.90;;;6.21;100.00;102281.22;4968971;28;19926;-87
2022/01/22 12:43:13;;;;;;;;;;;8.00;99.90;;;6.20;100.00;102280.34;4970559;28;19929;-86
2022/01/22 12:45:44;;;;;;;;;;;8.00;99.90;;;6.19;100.00;102281.34;4970617;28;19933;-85
2022/01/22 12:48:14;;;;;;;;;;;8.00;99.90;;;6.22;100.00;102288.34;4970840;28;20302;-84
2022/01/22 12:50:41;;;;;;;;;;;8.00;99.90;;;6.22;100.00;102272.97;4967812;28;19937;-89
2022/01/22 12:53:11;;;;;;;;;;;8.00;99.90;;;6.28;100.00;102289.72;4969314;28;19926;-85
2022/01/22 12:56:14;;;;;;;;;;;8.00;99.90;;;6.20;100.00;102284.91;4963474;28;19930;-85
2022/01/22 12:58:42;;;;;;;;;;;7.90;99.90;;;6.12;100.00;102280.03;4958587;28;19925;-86
2022/01/22 13:01:16;;;;;;;;;;;8.00;99.90;;;6.18;100.00;102285.00;4969431;28;19926;-85
2022/01/22 13:03:46;;;;;;;;;;;7.90;99.90;;;6.21;100.00;102284.78;4968787;28;19980;-83
2022/01/22 13:06:14;;;;;;;;;;;8.00;99.90;;;6.13;100.00;102276.38;4970261;28;20660;-83
2022/01/22 13:09:08;;;;;;;;;;;8.00;99.90;;;6.19;100.00;102288.59;4956552;28;19934;-85
2022/01/22 13:11:45;;;;;;;;;;;8.00;99.90;;;6.23;100.00;102285.53;4961203;28;20024;-85